sensor_id;sensor_type;location;lat;lon;timestamp;P1;durP1;ratioP1;P2;durP2;ratioP2
28627;SDS011;15815;46.760;19.604;2023-05-13T00:01:20;13.57;;;10.45;;
28627;SDS011;15815;46.760;19.604;2023-05-13T00:03:45;17.23;;;10.48;;
28627;SDS011;15815;46.760;19.604;2023-05-13T00:06:11;15.85;;;9.70;;
28627;SDS011;15815;46.760;19.604;2023-05-13T00:08:36;10.93;;;9.55;;
28627;SDS011;15815;46.760;19.604;2023-05-13T00:11:02;14.00;;;10.95;;
28627;SDS011;15815;46.760;19.604;2023-05-13T00:13:28;16.45;;;9.43;;
28627;SDS011;15815;46.760;19.604;2023-05-13T00:15:53;12.55;;;9.77;;
28627;SDS011;15815;46.760;19.604;2023-05-13T00:18:19;13.00;;;8.98;;
28627;SDS011;15815;46.760;19.604;2023-05-13T00:20:44;11.90;;;9.60;;
28627;SDS011;15815;46.760;19.604;2023-05-13T00:23:10;15.35;;;9.57;;
28627;SDS011;15815;46.760;19.604;2023-05-13T00:25:36;11.80;;;8.80;;
28627;SDS011;15815;46.760;19.604;2023-05-13T00:28:02;13.98;;;9.27;;
28627;SDS011;15815;46.760;19.604;2023-05-13T00:30:28;14.55;;;9.38;;
28627;SDS011;15815;46.760;19.604;2023-05-13T00:32:54;17.00;;;9.70;;
28627;SDS011;15815;46.760;19.604;2023-05-13T00:35:20;15.98;;;9.52;;
28627;SDS011;15815;46.760;19.604;2023-05-13T00:37:45;10.18;;;9.02;;
28627;SDS011;15815;46.760;19.604;2023-05-13T00:40:21;11.85;;;9.43;;
28627;SDS011;15815;46.760;19.604;2023-05-13T00:42:50;10.98;;;9.07;;
28627;SDS011;15815;46.760;19.604;2023-05-13T00:45:16;13.63;;;8.98;;
28627;SDS011;15815;46.760;19.604;2023-05-13T00:47:42;13.05;;;8.98;;
28627;SDS011;15815;46.760;19.604;2023-05-13T00:50:09;11.18;;;8.52;;
28627;SDS011;15815;46.760;19.604;2023-05-13T00:52:38;9.85;;;8.23;;
28627;SDS011;15815;46.760;19.604;2023-05-13T00:55:07;15.63;;;9.32;;
28627;SDS011;15815;46.760;19.604;2023-05-13T00:57:35;9.27;;;8.32;;
28627;SDS011;15815;46.760;19.604;2023-05-13T01:00:02;12.13;;;8.52;;
28627;SDS011;15815;46.760;19.604;2023-05-13T01:02:31;9.10;;;8.20;;
28627;SDS011;15815;46.760;19.604;2023-05-13T01:05:21;13.85;;;9.25;;
28627;SDS011;15815;46.760;19.604;2023-05-13T01:10:45;12.10;;;8.57;;
28627;SDS011;15815;46.760;19.604;2023-05-13T01:13:17;15.53;;;8.57;;
28627;SDS011;15815;46.760;19.604;2023-05-13T01:15:55;14.23;;;8.05;;
28627;SDS011;15815;46.760;19.604;2023-05-13T01:18:43;11.13;;;8.45;;
28627;SDS011;15815;46.760;19.604;2023-05-13T01:21:14;12.43;;;8.45;;
28627;SDS011;15815;46.760;19.604;2023-05-13T01:23:39;11.35;;;9.00;;
28627;SDS011;15815;46.760;19.604;2023-05-13T01:26:05;14.25;;;9.15;;
28627;SDS011;15815;46.760;19.604;2023-05-13T01:28:31;19.63;;;8.95;;
28627;SDS011;15815;46.760;19.604;2023-05-13T01:30:57;19.02;;;9.35;;
28627;SDS011;15815;46.760;19.604;2023-05-13T01:33:23;12.05;;;8.25;;
28627;SDS011;15815;46.760;19.604;2023-05-13T01:35:49;13.35;;;9.65;;
28627;SDS011;15815;46.760;19.604;2023-05-13T01:38:16;13.57;;;8.70;;
28627;SDS011;15815;46.760;19.604;2023-05-13T01:40:44;11.35;;;8.25;;
28627;SDS011;15815;46.760;19.604;2023-05-13T01:43:11;13.35;;;9.50;;
28627;SDS011;15815;46.760;19.604;2023-05-13T01:45:37;9.75;;;8.75;;
28627;SDS011;15815;46.760;19.604;2023-05-13T01:48:03;14.73;;;9.38;;
28627;SDS011;15815;46.760;19.604;2023-05-13T01:50:29;12.85;;;8.90;;
28627;SDS011;15815;46.760;19.604;2023-05-13T01:52:54;15.23;;;9.40;;
28627;SDS011;15815;46.760;19.604;2023-05-13T01:55:20;10.80;;;9.32;;
28627;SDS011;15815;46.760;19.604;2023-05-13T01:57:45;12.10;;;9.13;;
28627;SDS011;15815;46.760;19.604;2023-05-13T02:00:11;11.13;;;9.15;;
28627;SDS011;15815;46.760;19.604;2023-05-13T02:02:37;17.77;;;10.68;;
28627;SDS011;15815;46.760;19.604;2023-05-13T02:05:02;12.75;;;9.30;;
28627;SDS011;15815;46.760;19.604;2023-05-13T02:07:28;15.85;;;10.65;;
28627;SDS011;15815;46.760;19.604;2023-05-13T02:09:54;11.88;;;9.15;;
28627;SDS011;15815;46.760;19.604;2023-05-13T02:12:19;11.05;;;8.40;;
28627;SDS011;15815;46.760;19.604;2023-05-13T02:14:46;13.02;;;10.07;;
28627;SDS011;15815;46.760;19.604;2023-05-13T02:17:11;11.15;;;9.48;;
28627;SDS011;15815;46.760;19.604;2023-05-13T02:19:37;10.05;;;8.43;;
28627;SDS011;15815;46.760;19.604;2023-05-13T02:22:03;15.48;;;8.90;;
28627;SDS011;15815;46.760;19.604;2023-05-13T02:24:29;15.95;;;9.05;;
28627;SDS011;15815;46.760;19.604;2023-05-13T02:26:55;19.00;;;8.77;;
28627;SDS011;15815;46.760;19.604;2023-05-13T02:29:21;12.18;;;8.80;;
28627;SDS011;15815;46.760;19.604;2023-05-13T02:31:47;17.02;;;9.85;;
28627;SDS011;15815;46.760;19.604;2023-05-13T02:34:12;12.68;;;8.73;;
28627;SDS011;15815;46.760;19.604;2023-05-13T02:36:38;16.20;;;8.63;;
28627;SDS011;15815;46.760;19.604;2023-05-13T02:39:03;10.73;;;8.88;;
28627;SDS011;15815;46.760;19.604;2023-05-13T02:41:29;10.50;;;7.70;;
28627;SDS011;15815;46.760;19.604;2023-05-13T02:43:54;9.77;;;7.20;;
28627;SDS011;15815;46.760;19.604;2023-05-13T02:46:20;10.70;;;8.13;;
28627;SDS011;15815;46.760;19.604;2023-05-13T02:48:45;14.13;;;8.52;;
28627;SDS011;15815;46.760;19.604;2023-05-13T02:51:11;11.38;;;7.82;;
28627;SDS011;15815;46.760;19.604;2023-05-13T02:53:36;12.32;;;8.60;;
28627;SDS011;15815;46.760;19.604;2023-05-13T02:56:02;13.13;;;8.48;;
28627;SDS011;15815;46.760;19.604;2023-05-13T02:58:28;11.02;;;8.18;;
28627;SDS011;15815;46.760;19.604;2023-05-13T03:00:53;10.85;;;8.55;;
28627;SDS011;15815;46.760;19.604;2023-05-13T03:03:19;12.40;;;8.35;;
28627;SDS011;15815;46.760;19.604;2023-05-13T03:05:45;9.45;;;8.45;;
28627;SDS011;15815;46.760;19.604;2023-05-13T03:08:11;14.63;;;8.55;;
28627;SDS011;15815;46.760;19.604;2023-05-13T03:10:36;9.88;;;7.63;;
28627;SDS011;15815;46.760;19.604;2023-05-13T03:13:03;8.98;;;7.35;;
28627;SDS011;15815;46.760;19.604;2023-05-13T03:15:28;13.13;;;8.32;;
28627;SDS011;15815;46.760;19.604;2023-05-13T03:17:54;11.27;;;8.13;;
28627;SDS011;15815;46.760;19.604;2023-05-13T03:20:20;10.13;;;8.32;;
28627;SDS011;15815;46.760;19.604;2023-05-13T03:22:46;10.60;;;8.10;;
28627;SDS011;15815;46.760;19.604;2023-05-13T03:25:11;16.73;;;8.98;;
28627;SDS011;15815;46.760;19.604;2023-05-13T03:27:37;12.43;;;8.18;;
28627;SDS011;15815;46.760;19.604;2023-05-13T03:30:03;12.32;;;8.35;;
28627;SDS011;15815;46.760;19.604;2023-05-13T03:32:29;17.02;;;8.13;;
28627;SDS011;15815;46.760;19.604;2023-05-13T03:34:56;9.00;;;7.90;;
28627;SDS011;15815;46.760;19.604;2023-05-13T03:37:22;13.57;;;7.45;;
28627;SDS011;15815;46.760;19.604;2023-05-13T03:39:49;12.35;;;7.88;;
28627;SDS011;15815;46.760;19.604;2023-05-13T03:42:15;13.32;;;7.97;;
28627;SDS011;15815;46.760;19.604;2023-05-13T03:44:40;9.63;;;7.57;;
28627;SDS011;15815;46.760;19.604;2023-05-13T03:47:09;8.98;;;7.20;;
28627;SDS011;15815;46.760;19.604;2023-05-13T03:49:34;9.38;;;7.45;;
28627;SDS011;15815;46.760;19.604;2023-05-13T03:52:00;9.32;;;7.72;;
28627;SDS011;15815;46.760;19.604;2023-05-13T03:54:26;10.38;;;8.20;;
28627;SDS011;15815;46.760;19.604;2023-05-13T03:56:51;12.38;;;7.05;;
28627;SDS011;15815;46.760;19.604;2023-05-13T03:59:17;9.18;;;6.85;;
28627;SDS011;15815;46.760;19.604;2023-05-13T04:01:43;10.18;;;7.75;;
28627;SDS011;15815;46.760;19.604;2023-05-13T04:04:08;9.45;;;7.78;;
28627;SDS011;15815;46.760;19.604;2023-05-13T04:06:34;12.93;;;7.78;;
28627;SDS011;15815;46.760;19.604;2023-05-13T04:08:59;9.95;;;6.95;;
28627;SDS011;15815;46.760;19.604;2023-05-13T04:11:25;9.60;;;7.30;;
28627;SDS011;15815;46.760;19.604;2023-05-13T04:13:51;9.73;;;7.63;;
28627;SDS011;15815;46.760;19.604;2023-05-13T04:16:17;10.88;;;7.30;;
28627;SDS011;15815;46.760;19.604;2023-05-13T04:18:43;8.77;;;7.28;;
28627;SDS011;15815;46.760;19.604;2023-05-13T04:21:09;8.68;;;6.82;;
28627;SDS011;15815;46.760;19.604;2023-05-13T04:23:34;11.70;;;7.45;;
28627;SDS011;15815;46.760;19.604;2023-05-13T04:26:00;8.18;;;7.05;;
28627;SDS011;15815;46.760;19.604;2023-05-13T04:28:26;7.90;;;7.05;;
28627;SDS011;15815;46.760;19.604;2023-05-13T04:30:51;8.45;;;7.38;;
28627;SDS011;15815;46.760;19.604;2023-05-13T04:33:17;8.45;;;7.40;;
28627;SDS011;15815;46.760;19.604;2023-05-13T04:35:42;8.30;;;7.32;;
28627;SDS011;15815;46.760;19.604;2023-05-13T04:38:08;10.88;;;7.72;;
28627;SDS011;15815;46.760;19.604;2023-05-13T04:40:33;11.77;;;7.63;;
28627;SDS011;15815;46.760;19.604;2023-05-13T04:42:59;9.38;;;7.53;;
28627;SDS011;15815;46.760;19.604;2023-05-13T04:45:24;11.60;;;7.18;;
28627;SDS011;15815;46.760;19.604;2023-05-13T04:47:50;10.57;;;7.80;;
28627;SDS011;15815;46.760;19.604;2023-05-13T04:50:16;10.07;;;6.40;;
28627;SDS011;15815;46.760;19.604;2023-05-13T04:52:41;7.88;;;6.32;;
28627;SDS011;15815;46.760;19.604;2023-05-13T04:55:10;10.48;;;7.32;;
28627;SDS011;15815;46.760;19.604;2023-05-13T04:57:35;11.38;;;7.63;;
28627;SDS011;15815;46.760;19.604;2023-05-13T05:00:01;7.43;;;6.72;;
28627;SDS011;15815;46.760;19.604;2023-05-13T05:02:29;11.93;;;7.05;;
28627;SDS011;15815;46.760;19.604;2023-05-13T05:04:55;11.50;;;7.60;;
28627;SDS011;15815;46.760;19.604;2023-05-13T05:07:20;9.10;;;6.75;;
28627;SDS011;15815;46.760;19.604;2023-05-13T05:09:46;11.55;;;7.90;;
28627;SDS011;15815;46.760;19.604;2023-05-13T05:12:12;14.25;;;9.02;;
28627;SDS011;15815;46.760;19.604;2023-05-13T05:14:37;10.52;;;8.70;;
28627;SDS011;15815;46.760;19.604;2023-05-13T05:17:03;12.13;;;8.18;;
28627;SDS011;15815;46.760;19.604;2023-05-13T05:19:29;15.32;;;8.75;;
28627;SDS011;15815;46.760;19.604;2023-05-13T05:21:54;10.85;;;8.07;;
28627;SDS011;15815;46.760;19.604;2023-05-13T05:24:20;15.15;;;11.43;;
28627;SDS011;15815;46.760;19.604;2023-05-13T05:26:45;14.18;;;9.23;;
28627;SDS011;15815;46.760;19.604;2023-05-13T05:29:11;10.82;;;7.63;;
28627;SDS011;15815;46.760;19.604;2023-05-13T05:31:36;11.35;;;8.48;;
28627;SDS011;15815;46.760;19.604;2023-05-13T05:34:02;15.65;;;9.30;;
28627;SDS011;15815;46.760;19.604;2023-05-13T05:36:28;13.85;;;8.68;;
28627;SDS011;15815;46.760;19.604;2023-05-13T05:38:54;11.05;;;6.80;;
28627;SDS011;15815;46.760;19.604;2023-05-13T05:41:20;11.43;;;6.85;;
28627;SDS011;15815;46.760;19.604;2023-05-13T05:43:45;9.88;;;7.03;;
28627;SDS011;15815;46.760;19.604;2023-05-13T05:46:11;11.68;;;6.78;;
28627;SDS011;15815;46.760;19.604;2023-05-13T05:48:36;8.18;;;6.82;;
28627;SDS011;15815;46.760;19.604;2023-05-13T05:51:02;12.13;;;6.30;;
28627;SDS011;15815;46.760;19.604;2023-05-13T05:53:28;8.45;;;6.53;;
28627;SDS011;15815;46.760;19.604;2023-05-13T05:55:54;11.30;;;6.25;;
28627;SDS011;15815;46.760;19.604;2023-05-13T05:58:20;8.10;;;6.45;;
28627;SDS011;15815;46.760;19.604;2023-05-13T06:00:45;12.00;;;6.72;;
28627;SDS011;15815;46.760;19.604;2023-05-13T06:03:11;7.63;;;6.18;;
28627;SDS011;15815;46.760;19.604;2023-05-13T06:05:38;9.32;;;6.55;;
28627;SDS011;15815;46.760;19.604;2023-05-13T06:08:03;12.73;;;7.47;;
28627;SDS011;15815;46.760;19.604;2023-05-13T06:10:29;7.45;;;6.75;;
28627;SDS011;15815;46.760;19.604;2023-05-13T06:12:54;9.60;;;6.32;;
28627;SDS011;15815;46.760;19.604;2023-05-13T06:15:20;8.07;;;6.35;;
28627;SDS011;15815;46.760;19.604;2023-05-13T06:17:45;12.15;;;7.22;;
28627;SDS011;15815;46.760;19.604;2023-05-13T06:20:11;8.23;;;7.03;;
28627;SDS011;15815;46.760;19.604;2023-05-13T06:22:37;11.43;;;6.68;;
28627;SDS011;15815;46.760;19.604;2023-05-13T06:25:03;16.05;;;6.93;;
28627;SDS011;15815;46.760;19.604;2023-05-13T06:27:29;9.20;;;6.15;;
28627;SDS011;15815;46.760;19.604;2023-05-13T06:29:55;7.82;;;6.75;;
28627;SDS011;15815;46.760;19.604;2023-05-13T06:32:21;12.13;;;5.97;;
28627;SDS011;15815;46.760;19.604;2023-05-13T06:34:47;6.70;;;5.40;;
28627;SDS011;15815;46.760;19.604;2023-05-13T06:37:12;7.60;;;5.75;;
28627;SDS011;15815;46.760;19.604;2023-05-13T06:39:39;5.90;;;5.28;;
28627;SDS011;15815;46.760;19.604;2023-05-13T06:42:05;8.00;;;6.38;;
28627;SDS011;15815;46.760;19.604;2023-05-13T06:44:30;8.90;;;5.28;;
28627;SDS011;15815;46.760;19.604;2023-05-13T06:46:58;11.38;;;5.57;;
28627;SDS011;15815;46.760;19.604;2023-05-13T06:49:23;8.30;;;5.45;;
28627;SDS011;15815;46.760;19.604;2023-05-13T06:51:49;10.43;;;5.00;;
28627;SDS011;15815;46.760;19.604;2023-05-13T06:54:15;7.93;;;5.03;;
28627;SDS011;15815;46.760;19.604;2023-05-13T06:56:40;9.52;;;4.82;;
28627;SDS011;15815;46.760;19.604;2023-05-13T06:59:06;6.55;;;4.25;;
28627;SDS011;15815;46.760;19.604;2023-05-13T07:01:32;8.52;;;4.68;;
28627;SDS011;15815;46.760;19.604;2023-05-13T07:03:57;8.25;;;4.45;;
28627;SDS011;15815;46.760;19.604;2023-05-13T07:06:23;7.05;;;4.57;;
28627;SDS011;15815;46.760;19.604;2023-05-13T07:08:48;6.50;;;4.00;;
28627;SDS011;15815;46.760;19.604;2023-05-13T07:11:14;11.88;;;6.80;;
28627;SDS011;15815;46.760;19.604;2023-05-13T07:13:39;11.07;;;6.38;;
28627;SDS011;15815;46.760;19.604;2023-05-13T07:16:05;5.57;;;3.88;;
28627;SDS011;15815;46.760;19.604;2023-05-13T07:18:30;10.20;;;4.63;;
28627;SDS011;15815;46.760;19.604;2023-05-13T07:20:59;5.80;;;4.18;;
28627;SDS011;15815;46.760;19.604;2023-05-13T07:23:24;8.38;;;4.80;;
28627;SDS011;15815;46.760;19.604;2023-05-13T07:25:51;6.45;;;3.97;;
28627;SDS011;15815;46.760;19.604;2023-05-13T07:28:17;7.53;;;4.45;;
28627;SDS011;15815;46.760;19.604;2023-05-13T07:30:46;10.23;;;4.55;;
28627;SDS011;15815;46.760;19.604;2023-05-13T07:33:11;9.73;;;3.60;;
28627;SDS011;15815;46.760;19.604;2023-05-13T07:35:37;4.38;;;3.45;;
28627;SDS011;15815;46.760;19.604;2023-05-13T07:38:03;10.23;;;5.55;;
28627;SDS011;15815;46.760;19.604;2023-05-13T07:40:28;6.78;;;4.40;;
28627;SDS011;15815;46.760;19.604;2023-05-13T07:42:54;5.75;;;3.80;;
28627;SDS011;15815;46.760;19.604;2023-05-13T07:45:20;5.85;;;3.60;;
28627;SDS011;15815;46.760;19.604;2023-05-13T07:47:45;9.50;;;3.90;;
28627;SDS011;15815;46.760;19.604;2023-05-13T07:50:11;9.27;;;4.10;;
28627;SDS011;15815;46.760;19.604;2023-05-13T07:52:36;6.43;;;4.18;;
28627;SDS011;15815;46.760;19.604;2023-05-13T07:55:02;7.57;;;4.55;;
28627;SDS011;15815;46.760;19.604;2023-05-13T07:57:27;6.78;;;3.60;;
28627;SDS011;15815;46.760;19.604;2023-05-13T07:59:53;5.80;;;3.85;;
28627;SDS011;15815;46.760;19.604;2023-05-13T08:02:18;7.20;;;4.05;;
28627;SDS011;15815;46.760;19.604;2023-05-13T08:04:44;5.82;;;3.83;;
28627;SDS011;15815;46.760;19.604;2023-05-13T08:07:11;10.23;;;4.20;;
28627;SDS011;15815;46.760;19.604;2023-05-13T08:09:36;6.80;;;3.83;;
28627;SDS011;15815;46.760;19.604;2023-05-13T08:12:03;7.38;;;4.00;;
28627;SDS011;15815;46.760;19.604;2023-05-13T08:14:29;6.47;;;3.80;;
28627;SDS011;15815;46.760;19.604;2023-05-13T08:16:57;8.63;;;3.38;;
28627;SDS011;15815;46.760;19.604;2023-05-13T08:19:23;4.70;;;3.08;;
28627;SDS011;15815;46.760;19.604;2023-05-13T08:21:48;6.68;;;3.83;;
28627;SDS011;15815;46.760;19.604;2023-05-13T08:24:14;6.13;;;3.55;;
28627;SDS011;15815;46.760;19.604;2023-05-13T08:26:39;9.32;;;3.63;;
28627;SDS011;15815;46.760;19.604;2023-05-13T08:29:05;6.57;;;3.65;;
28627;SDS011;15815;46.760;19.604;2023-05-13T08:31:30;7.20;;;3.70;;
28627;SDS011;15815;46.760;19.604;2023-05-13T08:33:56;8.48;;;3.58;;
28627;SDS011;15815;46.760;19.604;2023-05-13T08:36:21;3.92;;;3.30;;
28627;SDS011;15815;46.760;19.604;2023-05-13T08:38:47;4.70;;;3.42;;
28627;SDS011;15815;46.760;19.604;2023-05-13T08:41:13;8.50;;;4.00;;
28627;SDS011;15815;46.760;19.604;2023-05-13T08:43:41;14.38;;;3.92;;
28627;SDS011;15815;46.760;19.604;2023-05-13T08:46:10;5.22;;;4.10;;
28627;SDS011;15815;46.760;19.604;2023-05-13T08:48:38;5.53;;;3.40;;
28627;SDS011;15815;46.760;19.604;2023-05-13T08:51:05;7.13;;;4.40;;
28627;SDS011;15815;46.760;19.604;2023-05-13T08:53:31;6.65;;;3.90;;
28627;SDS011;15815;46.760;19.604;2023-05-13T08:55:59;7.32;;;4.50;;
28627;SDS011;15815;46.760;19.604;2023-05-13T08:58:25;4.68;;;3.92;;
28627;SDS011;15815;46.760;19.604;2023-05-13T09:00:51;7.05;;;4.43;;
28627;SDS011;15815;46.760;19.604;2023-05-13T09:03:17;9.00;;;4.32;;
28627;SDS011;15815;46.760;19.604;2023-05-13T09:05:43;7.88;;;4.40;;
28627;SDS011;15815;46.760;19.604;2023-05-13T09:08:09;5.72;;;3.95;;
28627;SDS011;15815;46.760;19.604;2023-05-13T09:10:38;7.20;;;3.55;;
28627;SDS011;15815;46.760;19.604;2023-05-13T09:13:04;11.02;;;5.35;;
28627;SDS011;15815;46.760;19.604;2023-05-13T09:15:30;6.47;;;3.63;;
28627;SDS011;15815;46.760;19.604;2023-05-13T09:18:02;13.45;;;4.90;;
28627;SDS011;15815;46.760;19.604;2023-05-13T09:20:29;5.68;;;4.50;;
28627;SDS011;15815;46.760;19.604;2023-05-13T09:25:26;12.15;;;4.80;;
28627;SDS011;15815;46.760;19.604;2023-05-13T09:27:56;8.55;;;4.30;;
28627;SDS011;15815;46.760;19.604;2023-05-13T09:30:23;15.82;;;4.18;;
28627;SDS011;15815;46.760;19.604;2023-05-13T09:33:09;5.20;;;4.15;;
28627;SDS011;15815;46.760;19.604;2023-05-13T09:35:37;5.32;;;3.72;;
28627;SDS011;15815;46.760;19.604;2023-05-13T09:40:48;6.28;;;4.05;;
28627;SDS011;15815;46.760;19.604;2023-05-13T09:43:18;7.68;;;4.05;;
28627;SDS011;15815;46.760;19.604;2023-05-13T09:45:51;5.45;;;3.75;;
28627;SDS011;15815;46.760;19.604;2023-05-13T09:48:19;6.30;;;4.20;;
28627;SDS011;15815;46.760;19.604;2023-05-13T09:50:46;6.57;;;4.20;;
28627;SDS011;15815;46.760;19.604;2023-05-13T09:53:12;9.38;;;4.32;;
28627;SDS011;15815;46.760;19.604;2023-05-13T09:55:42;7.38;;;4.38;;
28627;SDS011;15815;46.760;19.604;2023-05-13T09:58:14;6.57;;;4.82;;
28627;SDS011;15815;46.760;19.604;2023-05-13T10:00:40;9.40;;;4.78;;
28627;SDS011;15815;46.760;19.604;2023-05-13T10:03:06;8.52;;;4.50;;
28627;SDS011;15815;46.760;19.604;2023-05-13T10:05:32;6.22;;;4.60;;
28627;SDS011;15815;46.760;19.604;2023-05-13T10:08:01;8.10;;;6.15;;
28627;SDS011;15815;46.760;19.604;2023-05-13T10:10:30;7.63;;;5.53;;
28627;SDS011;15815;46.760;19.604;2023-05-13T10:12:58;7.10;;;4.40;;
28627;SDS011;15815;46.760;19.604;2023-05-13T10:15:27;10.20;;;5.57;;
28627;SDS011;15815;46.760;19.604;2023-05-13T10:17:53;5.72;;;4.30;;
28627;SDS011;15815;46.760;19.604;2023-05-13T10:20:19;14.52;;;7.03;;
28627;SDS011;15815;46.760;19.604;2023-05-13T10:22:44;7.45;;;5.53;;
28627;SDS011;15815;46.760;19.604;2023-05-13T10:25:10;10.80;;;4.28;;
28627;SDS011;15815;46.760;19.604;2023-05-13T10:27:39;6.28;;;4.60;;
28627;SDS011;15815;46.760;19.604;2023-05-13T10:30:06;9.70;;;4.93;;
28627;SDS011;15815;46.760;19.604;2023-05-13T10:32:32;7.65;;;4.78;;
28627;SDS011;15815;46.760;19.604;2023-05-13T10:35:06;8.00;;;3.95;;
28627;SDS011;15815;46.760;19.604;2023-05-13T10:43:26;6.70;;;4.55;;
28627;SDS011;15815;46.760;19.604;2023-05-13T10:45:56;9.57;;;4.78;;
28627;SDS011;15815;46.760;19.604;2023-05-13T10:48:24;5.72;;;4.28;;
28627;SDS011;15815;46.760;19.604;2023-05-13T10:50:54;5.88;;;4.50;;
28627;SDS011;15815;46.760;19.604;2023-05-13T10:53:24;7.53;;;4.47;;
28627;SDS011;15815;46.760;19.604;2023-05-13T10:55:56;6.38;;;3.67;;
28627;SDS011;15815;46.760;19.604;2023-05-13T10:58:30;6.05;;;3.70;;
28627;SDS011;15815;46.760;19.604;2023-05-13T11:03:39;4.75;;;3.80;;
28627;SDS011;15815;46.760;19.604;2023-05-13T11:08:41;7.03;;;4.25;;
28627;SDS011;15815;46.760;19.604;2023-05-13T11:14:16;7.93;;;4.32;;
28627;SDS011;15815;46.760;19.604;2023-05-13T11:16:47;5.60;;;4.30;;
28627;SDS011;15815;46.760;19.604;2023-05-13T11:19:18;4.93;;;3.80;;
28627;SDS011;15815;46.760;19.604;2023-05-13T11:21:50;9.70;;;4.10;;
28627;SDS011;15815;46.760;19.604;2023-05-13T11:24:17;8.32;;;4.40;;
28627;SDS011;15815;46.760;19.604;2023-05-13T11:29:13;6.40;;;4.78;;
28627;SDS011;15815;46.760;19.604;2023-05-13T11:31:43;8.10;;;4.25;;
28627;SDS011;15815;46.760;19.604;2023-05-13T11:36:39;6.03;;;4.15;;
28627;SDS011;15815;46.760;19.604;2023-05-13T11:39:07;6.18;;;5.07;;
28627;SDS011;15815;46.760;19.604;2023-05-13T11:41:40;6.90;;;4.68;;
28627;SDS011;15815;46.760;19.604;2023-05-13T11:44:11;8.57;;;4.35;;
28627;SDS011;15815;46.760;19.604;2023-05-13T11:46:38;6.43;;;4.45;;
28627;SDS011;15815;46.760;19.604;2023-05-13T11:49:59;50.45;;;9.25;;
28627;SDS011;15815;46.760;19.604;2023-05-13T11:52:02;8.10;;;4.93;;
28627;SDS011;15815;46.760;19.604;2023-05-13T11:55:06;10.82;;;5.15;;
28627;SDS011;15815;46.760;19.604;2023-05-13T12:00:06;7.35;;;4.32;;
28627;SDS011;15815;46.760;19.604;2023-05-13T12:02:38;11.05;;;4.93;;
28627;SDS011;15815;46.760;19.604;2023-05-13T12:05:08;6.45;;;4.70;;
28627;SDS011;15815;46.760;19.604;2023-05-13T12:07:35;11.73;;;4.88;;
28627;SDS011;15815;46.760;19.604;2023-05-13T12:10:02;7.00;;;4.60;;
28627;SDS011;15815;46.760;19.604;2023-05-13T12:12:30;7.43;;;4.78;;
28627;SDS011;15815;46.760;19.604;2023-05-13T12:14:58;5.63;;;4.53;;
28627;SDS011;15815;46.760;19.604;2023-05-13T12:17:26;7.60;;;5.18;;
28627;SDS011;15815;46.760;19.604;2023-05-13T12:28:15;7.07;;;4.97;;
28627;SDS011;15815;46.760;19.604;2023-05-13T12:30:54;7.57;;;5.10;;
28627;SDS011;15815;46.760;19.604;2023-05-13T12:33:21;6.00;;;5.35;;
28627;SDS011;15815;46.760;19.604;2023-05-13T12:35:50;7.03;;;5.13;;
28627;SDS011;15815;46.760;19.604;2023-05-13T12:38:21;18.27;;;6.10;;
28627;SDS011;15815;46.760;19.604;2023-05-13T12:40:51;8.60;;;5.50;;
28627;SDS011;15815;46.760;19.604;2023-05-13T12:43:17;8.85;;;5.57;;
28627;SDS011;15815;46.760;19.604;2023-05-13T12:45:44;8.13;;;6.72;;
28627;SDS011;15815;46.760;19.604;2023-05-13T12:48:11;7.53;;;6.30;;
28627;SDS011;15815;46.760;19.604;2023-05-13T12:50:37;9.00;;;6.00;;
28627;SDS011;15815;46.760;19.604;2023-05-13T12:53:02;7.60;;;5.45;;
28627;SDS011;15815;46.760;19.604;2023-05-13T12:55:28;8.60;;;5.95;;
28627;SDS011;15815;46.760;19.604;2023-05-13T12:57:55;7.65;;;5.47;;
28627;SDS011;15815;46.760;19.604;2023-05-13T13:00:23;11.85;;;6.32;;
28627;SDS011;15815;46.760;19.604;2023-05-13T13:02:48;7.88;;;5.00;;
28627;SDS011;15815;46.760;19.604;2023-05-13T13:05:14;9.10;;;6.05;;
28627;SDS011;15815;46.760;19.604;2023-05-13T13:07:40;9.25;;;5.28;;
28627;SDS011;15815;46.760;19.604;2023-05-13T13:10:06;7.10;;;5.32;;
28627;SDS011;15815;46.760;19.604;2023-05-13T13:12:32;9.90;;;5.18;;
28627;SDS011;15815;46.760;19.604;2023-05-13T13:14:58;10.60;;;5.55;;
28627;SDS011;15815;46.760;19.604;2023-05-13T13:17:23;10.73;;;5.85;;
28627;SDS011;15815;46.760;19.604;2023-05-13T13:19:49;10.00;;;5.63;;
28627;SDS011;15815;46.760;19.604;2023-05-13T13:22:14;6.70;;;5.72;;
28627;SDS011;15815;46.760;19.604;2023-05-13T13:24:40;10.07;;;5.63;;
28627;SDS011;15815;46.760;19.604;2023-05-13T13:27:06;10.23;;;5.07;;
28627;SDS011;15815;46.760;19.604;2023-05-13T13:29:32;10.95;;;5.88;;
28627;SDS011;15815;46.760;19.604;2023-05-13T13:31:57;10.80;;;5.75;;
28627;SDS011;15815;46.760;19.604;2023-05-13T13:34:23;13.88;;;6.22;;
28627;SDS011;15815;46.760;19.604;2023-05-13T13:37:07;11.48;;;5.53;;
28627;SDS011;15815;46.760;19.604;2023-05-13T13:39:32;10.95;;;5.60;;
28627;SDS011;15815;46.760;19.604;2023-05-13T13:41:58;10.85;;;5.90;;
28627;SDS011;15815;46.760;19.604;2023-05-13T13:44:24;11.35;;;6.10;;
28627;SDS011;15815;46.760;19.604;2023-05-13T13:46:49;11.07;;;6.13;;
28627;SDS011;15815;46.760;19.604;2023-05-13T13:49:15;9.13;;;5.63;;
28627;SDS011;15815;46.760;19.604;2023-05-13T13:51:40;10.60;;;6.55;;
28627;SDS011;15815;46.760;19.604;2023-05-13T13:54:06;8.52;;;5.10;;
28627;SDS011;15815;46.760;19.604;2023-05-13T13:56:32;8.95;;;5.28;;
28627;SDS011;15815;46.760;19.604;2023-05-13T13:58:57;9.10;;;4.80;;
28627;SDS011;15815;46.760;19.604;2023-05-13T14:01:24;10.20;;;5.03;;
28627;SDS011;15815;46.760;19.604;2023-05-13T14:03:50;7.60;;;4.82;;
28627;SDS011;15815;46.760;19.604;2023-05-13T14:06:16;11.00;;;5.65;;
28627;SDS011;15815;46.760;19.604;2023-05-13T14:08:42;7.15;;;5.10;;
28627;SDS011;15815;46.760;19.604;2023-05-13T14:11:07;6.88;;;4.93;;
28627;SDS011;15815;46.760;19.604;2023-05-13T14:13:33;7.63;;;5.32;;
28627;SDS011;15815;46.760;19.604;2023-05-13T14:16:00;7.40;;;5.20;;
28627;SDS011;15815;46.760;19.604;2023-05-13T14:18:25;7.65;;;5.30;;
28627;SDS011;15815;46.760;19.604;2023-05-13T14:20:51;7.47;;;5.25;;
28627;SDS011;15815;46.760;19.604;2023-05-13T14:23:16;8.60;;;5.25;;
28627;SDS011;15815;46.760;19.604;2023-05-13T14:25:42;11.32;;;6.30;;
28627;SDS011;15815;46.760;19.604;2023-05-13T14:28:08;10.75;;;5.35;;
28627;SDS011;15815;46.760;19.604;2023-05-13T14:30:34;9.15;;;5.63;;
28627;SDS011;15815;46.760;19.604;2023-05-13T14:32:59;8.35;;;4.97;;
28627;SDS011;15815;46.760;19.604;2023-05-13T14:35:25;10.75;;;5.95;;
28627;SDS011;15815;46.760;19.604;2023-05-13T14:37:50;6.93;;;4.88;;
28627;SDS011;15815;46.760;19.604;2023-05-13T14:40:16;10.35;;;5.40;;
28627;SDS011;15815;46.760;19.604;2023-05-13T14:42:42;7.80;;;4.95;;
28627;SDS011;15815;46.760;19.604;2023-05-13T14:45:08;10.50;;;4.82;;
28627;SDS011;15815;46.760;19.604;2023-05-13T14:47:34;10.68;;;5.03;;
28627;SDS011;15815;46.760;19.604;2023-05-13T14:50:00;10.05;;;5.47;;
28627;SDS011;15815;46.760;19.604;2023-05-13T14:52:25;7.72;;;5.35;;
28627;SDS011;15815;46.760;19.604;2023-05-13T14:54:51;5.97;;;4.90;;
28627;SDS011;15815;46.760;19.604;2023-05-13T14:57:17;7.43;;;5.70;;
28627;SDS011;15815;46.760;19.604;2023-05-13T14:59:43;6.95;;;5.40;;
28627;SDS011;15815;46.760;19.604;2023-05-13T15:02:08;7.68;;;6.07;;
28627;SDS011;15815;46.760;19.604;2023-05-13T15:04:34;6.43;;;4.88;;